createdAt,value
2023-03-18T00:00:43.652Z,-65
2023-03-18T00:05:45.481Z,-65
2023-03-18T00:10:46.680Z,-65
2023-03-18T00:15:47.964Z,-66
2023-03-18T00:20:49.156Z,-65
2023-03-18T00:25:50.531Z,-65
2023-03-18T00:30:51.767Z,-65
2023-03-18T00:35:53.306Z,-65
2023-03-18T00:41:01.162Z,-65
2023-03-18T00:46:02.303Z,-65
2023-03-18T00:51:03.882Z,-65
2023-03-18T00:56:05.811Z,-65
2023-03-18T01:01:07.239Z,-65
2023-03-18T01:06:08.426Z,-66
2023-03-18T01:11:09.571Z,-65
2023-03-18T01:16:10.839Z,-65
2023-03-18T01:21:12.114Z,-65
2023-03-18T01:26:13.327Z,-65
2023-03-18T01:31:15.355Z,-65
2023-03-18T01:36:17.550Z,-65
2023-03-18T01:41:18.870Z,-65
2023-03-18T01:46:20.277Z,-65
2023-03-18T01:51:21.542Z,-65
2023-03-18T01:56:22.678Z,-65
2023-03-18T02:01:23.934Z,-65
2023-03-18T02:06:25.245Z,-65
2023-03-18T02:11:27.042Z,-65
2023-03-18T02:16:28.312Z,-65
2023-03-18T02:21:29.615Z,-66
2023-03-18T02:26:30.862Z,-65
2023-03-18T02:31:32.007Z,-65
2023-03-18T02:36:33.236Z,-65
2023-03-18T02:41:34.421Z,-65
2023-03-18T02:46:36.334Z,-65
2023-03-18T02:51:37.570Z,-65
2023-03-18T02:56:38.905Z,-66
2023-03-18T03:01:40.118Z,-65
2023-03-18T03:06:41.393Z,-65
2023-03-18T03:11:42.811Z,-65
2023-03-18T03:16:44.347Z,-65
2023-03-18T03:21:45.568Z,-65
2023-03-18T03:26:46.764Z,-65
2023-03-18T03:31:47.972Z,-65
2023-03-18T03:36:49.850Z,-65
2023-03-18T03:41:51.162Z,-65
2023-03-18T03:46:52.457Z,-65
2023-03-18T03:51:53.705Z,-65
2023-03-18T03:56:54.861Z,-65
2023-03-18T04:01:57.030Z,-65
2023-03-18T04:06:58.382Z,-65
2023-03-18T04:11:59.566Z,-65
2023-03-18T04:17:00.772Z,-65
2023-03-18T04:22:02.186Z,-65
2023-03-18T04:27:03.375Z,-65
2023-03-18T04:32:04.574Z,-65
2023-03-18T04:37:05.768Z,-65
2023-03-18T04:42:07.334Z,-65
2023-03-18T04:47:08.460Z,-65
2023-03-18T04:52:09.727Z,-65
2023-03-18T04:57:11.052Z,-65
2023-03-18T05:02:12.244Z,-65
2023-03-18T05:07:14.524Z,-64
2023-03-18T05:12:15.903Z,-65
2023-03-18T05:17:17.227Z,-65
2023-03-18T05:22:18.461Z,-65
2023-03-18T05:27:19.725Z,-65
2023-03-18T05:32:20.945Z,-65
2023-03-18T05:37:22.214Z,-65
2023-03-18T05:42:23.430Z,-65
2023-03-18T05:47:24.608Z,-65
2023-03-18T05:52:25.832Z,-65
2023-03-18T05:57:26.957Z,-65
2023-03-18T06:02:28.264Z,-65
2023-03-18T06:07:30.446Z,-65
2023-03-18T06:12:31.599Z,-65
2023-03-18T06:17:32.827Z,-65
2023-03-18T06:22:34.027Z,-65
2023-03-18T06:27:35.469Z,-65
2023-03-18T06:32:36.762Z,-65
2023-03-18T06:37:38.162Z,-65
2023-03-18T06:42:39.391Z,-65
2023-03-18T06:47:41.030Z,-65
2023-03-18T06:52:42.405Z,-66
2023-03-18T06:57:44.875Z,-65
2023-03-18T07:02:46.103Z,-65
2023-03-18T07:07:48.416Z,-67
2023-03-18T07:12:50.379Z,-65
2023-03-18T07:17:52.505Z,-66
2023-03-18T07:22:53.733Z,-66
2023-03-18T07:27:54.923Z,-65
2023-03-18T07:32:56.488Z,-66
2023-03-18T07:37:57.765Z,-65
2023-03-18T07:42:58.945Z,-65
2023-03-18T07:48:00.156Z,-65
2023-03-18T07:53:01.594Z,-66
2023-03-18T07:58:04.577Z,-66
2023-03-18T08:03:07.171Z,-66
2023-03-18T08:08:08.351Z,-65
2023-03-18T08:13:09.766Z,-65
2023-03-18T08:18:10.999Z,-65
2023-03-18T08:23:12.770Z,-65
2023-03-18T08:28:13.990Z,-65
2023-03-18T08:33:15.815Z,-66
2023-03-18T08:38:16.968Z,-65
2023-03-18T08:43:18.217Z,-65
2023-03-18T08:48:19.346Z,-65
2023-03-18T08:53:20.553Z,-66
2023-03-18T08:58:21.761Z,-69
2023-03-18T09:03:24.205Z,-66
2023-03-18T09:08:25.659Z,-65
2023-03-18T09:13:26.805Z,-65
2023-03-18T09:18:28.203Z,-65
2023-03-18T09:23:29.394Z,-65
2023-03-18T09:28:31.010Z,-66
2023-03-18T09:33:32.183Z,-65
2023-03-18T09:38:33.394Z,-67
2023-03-18T09:43:34.585Z,-66
2023-03-18T09:48:35.784Z,-67
2023-03-18T09:53:37.430Z,-66
2023-03-18T09:58:38.586Z,-65
2023-03-18T10:03:39.821Z,-65
2023-03-18T10:08:41.398Z,-66
2023-03-18T10:13:42.645Z,-65
2023-03-18T10:18:44.688Z,-65
2023-03-18T10:23:46.284Z,-66
2023-03-18T10:28:49.153Z,-67
2023-03-18T10:33:50.397Z,-70
2023-03-18T10:38:51.787Z,-69
2023-03-18T10:43:53.022Z,-70
2023-03-18T10:48:54.207Z,-70
2023-03-18T10:53:55.520Z,-69
2023-03-18T10:58:57.469Z,-70
2023-03-18T11:03:59.273Z,-71
2023-03-18T11:09:00.601Z,-71
2023-03-18T11:14:02.297Z,-69
2023-03-18T11:19:03.561Z,-68
2023-03-18T11:24:10.294Z,-69
2023-03-18T11:29:11.545Z,-66
2023-03-18T11:34:12.686Z,-67
2023-03-18T11:39:13.918Z,-67
2023-03-18T11:44:15.381Z,-67
2023-03-18T11:49:17.282Z,-67
2023-03-18T11:54:18.497Z,-67
2023-03-18T11:59:19.655Z,-66
2023-03-18T12:04:21.862Z,-67
2023-03-18T12:09:23.460Z,-67
2023-03-18T12:14:25.978Z,-67
2023-03-18T12:19:27.180Z,-67
2023-03-18T12:24:28.334Z,-67
2023-03-18T12:29:29.514Z,-68
2023-03-18T12:34:30.736Z,-66
2023-03-18T12:39:33.722Z,-67
2023-03-18T12:44:34.886Z,-67
2023-03-18T12:49:36.065Z,-67
2023-03-18T12:54:37.257Z,-67
2023-03-18T12:59:38.457Z,-67
2023-03-18T13:04:39.919Z,-67
2023-03-18T13:09:41.189Z,-66
2023-03-18T13:14:42.719Z,-66
2023-03-18T13:19:43.944Z,-66
2023-03-18T13:24:45.161Z,-67
2023-03-18T13:29:46.652Z,-67
2023-03-18T13:34:47.885Z,-67
2023-03-18T13:39:49.051Z,-67
2023-03-18T13:44:51.072Z,-67
2023-03-18T13:49:52.276Z,-67
2023-03-18T13:54:53.520Z,-67
2023-03-18T13:59:54.721Z,-68
2023-03-18T14:04:58.278Z,-69
2023-03-18T14:10:15.270Z,-69
2023-03-18T14:15:18.735Z,-69
2023-03-18T14:20:20.353Z,-68
2023-03-18T14:25:21.857Z,-68
2023-03-18T14:30:23.145Z,-68
2023-03-18T14:35:28.091Z,-68
2023-03-18T14:40:29.323Z,-68
2023-03-18T14:45:31.029Z,-68
2023-03-18T14:50:32.722Z,-70
2023-03-18T14:55:34.789Z,-71
2023-03-18T15:00:36.292Z,-69
2023-03-18T15:05:37.504Z,-68
2023-03-18T15:10:38.793Z,-68
2023-03-18T15:15:40.011Z,-68
2023-03-18T15:20:41.220Z,-70
2023-03-18T15:25:42.466Z,-68
2023-03-18T15:30:44.457Z,-67
2023-03-18T15:35:46.153Z,-68
2023-03-18T15:40:47.828Z,-68
2023-03-18T15:45:49.046Z,-67
2023-03-18T15:50:50.579Z,-66
2023-03-18T15:55:51.817Z,-67
2023-03-18T16:00:53.084Z,-67
2023-03-18T16:05:54.332Z,-67
2023-03-18T16:10:55.831Z,-65
2023-03-18T16:15:57.313Z,-65
2023-03-18T16:20:58.609Z,-66
2023-03-18T16:25:59.941Z,-65
2023-03-18T16:31:01.577Z,-66
2023-03-18T16:36:03.991Z,-66
2023-03-18T16:41:05.276Z,-66
2023-03-18T16:46:06.568Z,-65
2023-03-18T16:51:07.806Z,-66
2023-03-18T16:56:09.019Z,-65
2023-03-18T17:01:11.389Z,-66
2023-03-18T17:06:13.144Z,-65
2023-03-18T17:11:14.345Z,-66
2023-03-18T17:16:15.615Z,-65
2023-03-18T17:21:17.122Z,-68
2023-03-18T17:26:18.735Z,-66
2023-03-18T17:31:20.880Z,-68
2023-03-18T17:36:22.450Z,-68
2023-03-18T17:41:23.871Z,-68
2023-03-18T17:46:25.144Z,-66
2023-03-18T17:51:27.412Z,-65
2023-03-18T17:56:30.412Z,-65
2023-03-18T18:01:31.703Z,-66
2023-03-18T18:06:33.902Z,-69
2023-03-18T18:11:35.321Z,-65
2023-03-18T18:16:37.461Z,-65
2023-03-18T18:21:38.686Z,-64
2023-03-18T18:26:39.913Z,-66
2023-03-18T18:31:41.521Z,-64
2023-03-18T18:36:43.049Z,-66
2023-03-18T18:41:46.222Z,-65
2023-03-18T18:46:47.454Z,-65
2023-03-18T18:51:48.759Z,-64
2023-03-18T18:56:50.379Z,-67
2023-03-18T19:01:51.928Z,-68
2023-03-18T19:06:53.728Z,-64
2023-03-18T19:11:56.599Z,-67
2023-03-18T19:16:58.737Z,-67
2023-03-18T19:22:00.450Z,-65
2023-03-18T19:27:02.265Z,-67
2023-03-18T19:32:03.669Z,-67
2023-03-18T19:37:05.891Z,-67
2023-03-18T19:42:07.349Z,-68
2023-03-18T19:47:08.885Z,-68
2023-03-18T19:52:10.042Z,-65
2023-03-18T19:57:11.268Z,-67
2023-03-18T20:02:12.542Z,-67
2023-03-18T20:07:13.732Z,-66
2023-03-18T20:12:15.345Z,-65
2023-03-18T20:17:16.528Z,-65
2023-03-18T20:22:17.775Z,-65
2023-03-18T20:27:18.991Z,-64
2023-03-18T20:32:20.245Z,-64
2023-03-18T20:37:21.793Z,-64
2023-03-18T20:42:23.063Z,-66
2023-03-18T20:47:24.232Z,-64
2023-03-18T20:52:25.837Z,-64
2023-03-18T20:57:27.404Z,-64
2023-03-18T21:02:28.969Z,-65
2023-03-18T21:07:30.668Z,-66
2023-03-18T21:12:31.868Z,-66
2023-03-18T21:17:33.074Z,-64
2023-03-18T21:22:34.288Z,-66
2023-03-18T21:27:35.504Z,-64
2023-03-18T21:32:41.000Z,-66
2023-03-18T21:37:42.257Z,-65
2023-03-18T21:42:43.828Z,-65
2023-03-18T21:47:45.148Z,-64
2023-03-18T21:52:46.642Z,-64
2023-03-18T21:57:49.121Z,-63
2023-03-18T22:02:50.908Z,-63
2023-03-18T22:07:52.108Z,-64
2023-03-18T22:12:53.397Z,-65
2023-03-18T22:17:54.755Z,-67
2023-03-18T22:22:56.016Z,-63
2023-03-18T22:27:57.294Z,-64
2023-03-18T22:32:58.510Z,-64
2023-03-18T22:37:59.857Z,-64
2023-03-18T22:43:01.381Z,-64
2023-03-18T22:48:02.670Z,-64
2023-03-18T22:53:03.831Z,-64
2023-03-18T22:58:05.016Z,-64
2023-03-18T23:03:06.211Z,-63
2023-03-18T23:08:07.531Z,-63
2023-03-18T23:13:08.760Z,-64
2023-03-18T23:18:09.898Z,-64
2023-03-18T23:23:11.650Z,-64
2023-03-18T23:28:12.978Z,-63
2023-03-18T23:33:14.290Z,-63
2023-03-18T23:38:15.505Z,-63
2023-03-18T23:43:16.653Z,-64
2023-03-18T23:48:17.778Z,-63
2023-03-18T23:53:18.985Z,-64
2023-03-18T23:58:20.275Z,-63
